createdAt,value
2022-10-11T00:03:21.750Z,9.38
2022-10-11T00:08:24.384Z,9.29
2022-10-11T00:13:28.051Z,9.22
2022-10-11T00:18:30.989Z,9.20
2022-10-11T00:23:34.261Z,9.23
2022-10-11T00:28:37.978Z,9.28
2022-10-11T00:33:40.828Z,9.31
2022-10-11T00:38:45.008Z,9.33
2022-10-11T00:43:47.916Z,9.36
2022-10-11T00:49:12.511Z,9.39
2022-10-11T00:54:19.006Z,9.40
2022-10-11T00:59:26.468Z,9.38
2022-10-11T01:04:29.144Z,9.33
2022-10-11T01:09:32.175Z,9.24
2022-10-11T01:14:37.821Z,9.17
2022-10-11T01:19:58.461Z,9.15
2022-10-11T01:25:27.826Z,9.12
2022-10-11T01:30:33.291Z,9.08
2022-10-11T01:35:47.101Z,9.06
2022-10-11T01:41:06.957Z,9.02
2022-10-11T01:46:11.078Z,9.01
2022-10-11T01:51:14.161Z,8.97
2022-10-11T01:56:49.328Z,8.88
2022-10-11T02:02:10.827Z,8.74
2022-10-11T02:07:39.790Z,8.58
2022-10-11T02:12:47.959Z,8.44
2022-10-11T02:17:56.375Z,8.31
2022-10-11T02:23:08.920Z,8.18
2022-10-11T02:28:16.669Z,8.04
2022-10-11T02:33:25.318Z,7.93
2022-10-11T02:38:34.545Z,7.86
2022-10-11T02:43:41.631Z,7.74
2022-10-11T02:48:44.238Z,7.65
2022-10-11T02:53:46.919Z,7.59
2022-10-11T02:58:49.712Z,7.52
2022-10-11T03:03:52.424Z,7.47
2022-10-11T03:08:55.075Z,7.39
2022-10-11T03:13:57.819Z,7.35
2022-10-11T03:19:00.448Z,7.44
2022-10-11T03:24:03.518Z,7.64
2022-10-11T03:29:06.196Z,7.81
2022-10-11T03:34:09.406Z,7.95
2022-10-11T03:39:12.094Z,8.09
2022-10-11T03:44:14.776Z,8.24
2022-10-11T03:49:17.432Z,8.34
2022-10-11T03:54:20.113Z,8.46
2022-10-11T03:59:22.743Z,8.57
2022-10-11T04:04:25.533Z,8.64
2022-10-11T04:09:28.602Z,8.69
2022-10-11T04:14:31.412Z,8.74
2022-10-11T04:19:34.126Z,8.76
2022-10-11T04:24:36.828Z,8.80
2022-10-11T04:29:39.464Z,8.81
2022-10-11T04:34:42.198Z,8.77
2022-10-11T04:39:45.351Z,8.72
2022-10-11T04:44:48.604Z,8.64
2022-10-11T04:49:51.275Z,8.58
2022-10-11T04:54:53.920Z,8.53
2022-10-11T04:59:56.619Z,8.54
2022-10-11T05:04:59.575Z,8.59
2022-10-11T05:10:02.606Z,8.62
2022-10-11T05:15:06.429Z,8.66
2022-10-11T05:20:10.087Z,8.70
2022-10-11T05:25:12.803Z,8.73
2022-10-11T05:30:15.566Z,8.77
2022-10-11T05:35:18.266Z,8.82
2022-10-11T05:40:20.931Z,8.85
2022-10-11T05:45:23.664Z,8.87
2022-10-11T05:50:26.481Z,8.89
2022-10-11T05:55:29.691Z,8.89
2022-10-11T06:00:32.327Z,8.88
2022-10-11T06:05:36.394Z,8.88
2022-10-11T06:10:39.047Z,8.93
2022-10-11T06:15:41.862Z,9.00
2022-10-11T06:20:44.532Z,8.98
2022-10-11T06:25:59.652Z,8.93
2022-10-11T06:31:04.648Z,8.89
2022-10-11T06:36:11.914Z,8.92
2022-10-11T06:41:20.902Z,9.07
2022-10-11T06:46:25.851Z,9.44
2022-10-11T06:51:30.226Z,9.63
2022-10-11T06:56:33.199Z,9.56
2022-10-11T07:01:37.643Z,9.57
2022-10-11T07:17:35.977Z,10.09
2022-10-11T07:22:45.886Z,10.46
2022-10-11T07:28:02.020Z,10.74
2022-10-11T07:38:35.236Z,11.12
2022-10-11T07:43:38.786Z,11.09
2022-10-11T07:48:41.859Z,11.04
2022-10-11T07:53:53.204Z,11.06
2022-10-11T07:58:59.857Z,11.06
2022-10-11T08:04:05.401Z,11.14
2022-10-11T08:09:19.969Z,11.37
2022-10-11T08:14:42.635Z,12.01
2022-10-11T08:19:45.480Z,12.40
2022-10-11T08:24:53.685Z,12.48
2022-10-11T08:30:02.996Z,12.49
2022-10-11T08:35:07.715Z,12.52
2022-10-11T08:40:16.096Z,12.49
2022-10-11T08:45:30.232Z,12.36
2022-10-11T08:50:33.766Z,12.25
2022-10-11T08:55:45.257Z,12.34
2022-10-11T09:00:53.171Z,12.64
2022-10-11T09:06:08.284Z,12.68
2022-10-11T09:11:23.971Z,12.61
2022-10-11T09:16:47.756Z,12.76
2022-10-11T09:22:30.211Z,12.83
2022-10-11T09:28:01.304Z,13.08
2022-10-11T09:33:15.325Z,13.21
2022-10-11T09:38:24.677Z,13.05
2022-10-11T09:43:27.654Z,13.00
2022-10-11T09:48:39.671Z,13.24
2022-10-11T09:53:56.894Z,13.40
2022-10-11T09:59:10.619Z,13.39
2022-10-11T10:04:17.183Z,13.56
2022-10-11T10:09:24.990Z,13.60
2022-10-11T10:14:30.187Z,13.39
2022-10-11T10:19:44.772Z,13.43
2022-10-11T10:24:50.688Z,13.41
2022-10-11T10:30:08.739Z,13.30
2022-10-11T10:35:34.547Z,13.35
2022-10-11T10:40:57.666Z,13.69
2022-10-11T10:46:16.421Z,13.72
2022-10-11T10:51:38.717Z,13.75
2022-10-11T10:57:04.022Z,13.88
2022-10-11T11:02:40.261Z,13.67
2022-10-11T11:07:52.645Z,13.46
2022-10-11T11:13:38.515Z,13.80
2022-10-11T11:19:54.488Z,14.44
2022-10-11T11:25:22.601Z,14.88
2022-10-11T11:30:41.720Z,14.91
2022-10-11T11:35:53.447Z,14.43
2022-10-11T11:41:02.295Z,13.69
2022-10-11T11:46:13.479Z,13.38
2022-10-11T11:51:31.774Z,13.48
2022-10-11T11:57:03.522Z,13.45
2022-10-11T12:02:45.728Z,13.52
2022-10-11T12:07:51.768Z,13.82
2022-10-11T12:13:38.275Z,13.81
2022-10-11T12:18:49.014Z,13.64
2022-10-11T12:23:56.219Z,13.67
2022-10-11T12:29:25.876Z,13.88
2022-10-11T12:35:18.896Z,13.91
2022-10-11T12:40:41.839Z,13.95
2022-10-11T12:45:51.194Z,14.08
2022-10-11T12:51:38.642Z,13.99
2022-10-11T12:57:40.491Z,14.00
2022-10-11T13:02:52.962Z,14.12
2022-10-11T13:08:05.488Z,14.23
2022-10-11T13:13:21.702Z,14.19
2022-10-11T13:18:27.488Z,14.05
2022-10-11T13:23:39.784Z,13.86
2022-10-11T13:28:44.618Z,13.57
2022-10-11T13:33:48.293Z,13.31
2022-10-11T13:39:01.871Z,13.31
2022-10-11T13:44:04.880Z,13.27
2022-10-11T13:49:48.479Z,13.20
2022-10-11T13:55:03.881Z,13.08
2022-10-11T14:00:43.397Z,13.07
2022-10-11T14:11:42.041Z,13.09
2022-10-11T14:17:11.931Z,13.07
2022-10-11T14:22:37.734Z,13.16
2022-10-11T14:27:49.106Z,13.61
2022-10-11T14:32:54.956Z,13.73
2022-10-11T14:37:57.918Z,13.58
2022-10-11T14:43:00.695Z,13.34
2022-10-11T14:48:04.335Z,13.05
2022-10-11T14:53:07.699Z,12.81
2022-10-11T14:58:11.849Z,12.63
2022-10-11T15:03:14.541Z,12.41
2022-10-11T15:08:17.667Z,12.19
2022-10-11T15:13:20.329Z,12.01
2022-10-11T15:18:23.050Z,11.86
2022-10-11T15:23:25.755Z,11.73
2022-10-11T15:28:32.573Z,11.61
2022-10-11T15:33:35.645Z,11.47
2022-10-11T15:38:38.332Z,11.31
2022-10-11T15:43:42.607Z,11.13
2022-10-11T15:48:46.703Z,10.96
2022-10-11T15:53:49.403Z,10.82
2022-10-11T15:58:52.056Z,10.71
2022-10-11T16:03:54.832Z,10.64
2022-10-11T16:08:57.532Z,10.60
2022-10-11T16:14:00.154Z,10.54
2022-10-11T16:19:02.907Z,10.47
2022-10-11T16:24:05.691Z,10.40
2022-10-11T16:29:08.381Z,10.32
2022-10-11T16:34:11.053Z,10.21
2022-10-11T16:39:16.937Z,10.10
2022-10-11T16:44:21.433Z,9.96
2022-10-11T16:49:27.346Z,9.78
2022-10-11T16:54:31.795Z,9.56
2022-10-11T16:59:35.073Z,9.32
2022-10-11T17:04:37.756Z,9.03
2022-10-11T17:09:44.107Z,8.72
2022-10-11T17:14:48.021Z,8.41
2022-10-11T17:19:50.833Z,8.17
2022-10-11T17:24:53.543Z,8.02
2022-10-11T17:29:56.259Z,7.87
2022-10-11T17:35:02.023Z,7.68
2022-10-11T17:40:06.356Z,7.45
2022-10-11T17:45:09.504Z,7.27
2022-10-11T17:50:12.184Z,7.14
2022-10-11T17:55:15.132Z,6.99
2022-10-11T18:00:17.885Z,6.83
2022-10-11T18:05:20.543Z,6.72
2022-10-11T18:10:23.867Z,6.62
2022-10-11T18:15:30.773Z,6.51
2022-10-11T18:20:33.773Z,6.41
2022-10-11T18:25:36.777Z,6.35
2022-10-11T18:30:47.362Z,6.34
2022-10-11T18:35:50.116Z,6.31
2022-10-11T18:40:52.750Z,6.19
2022-10-11T18:46:06.369Z,6.10
2022-10-11T18:51:16.236Z,6.07
2022-10-11T18:56:26.776Z,6.04
2022-10-11T19:01:38.610Z,6.00
2022-10-11T19:06:43.834Z,5.98
2022-10-11T19:11:46.653Z,5.91
2022-10-11T19:16:51.626Z,5.85
2022-10-11T19:21:54.471Z,5.77
2022-10-11T19:27:02.223Z,5.74
2022-10-11T19:32:05.748Z,5.69
2022-10-11T19:37:13.225Z,5.67
2022-10-11T19:42:15.976Z,5.67
2022-10-11T19:47:18.736Z,5.66
2022-10-11T19:52:21.525Z,5.59
2022-10-11T19:57:24.211Z,5.47
2022-10-11T20:02:26.983Z,5.35
2022-10-11T20:07:29.883Z,5.23
2022-10-11T20:12:34.024Z,5.09
2022-10-11T20:17:49.304Z,4.98
2022-10-11T20:22:53.604Z,4.85
2022-10-11T20:27:56.608Z,4.76
2022-10-11T20:32:59.243Z,4.69
2022-10-11T20:38:02.117Z,4.63
2022-10-11T20:43:04.836Z,4.54
2022-10-11T20:48:07.496Z,4.46
2022-10-11T20:53:15.545Z,4.39
2022-10-11T20:58:19.771Z,4.31
2022-10-11T21:03:22.336Z,4.23
2022-10-11T21:08:25.082Z,4.20
2022-10-11T21:13:27.892Z,4.25
2022-10-11T21:18:30.790Z,4.30
2022-10-11T21:23:34.526Z,4.35
2022-10-11T21:28:38.574Z,4.47
2022-10-11T21:33:43.620Z,4.61
2022-10-11T21:38:46.595Z,4.75
2022-10-11T21:43:49.565Z,4.85
2022-10-11T21:48:52.365Z,4.96
2022-10-11T21:53:57.570Z,5.02
2022-10-11T21:59:00.319Z,5.00
2022-10-11T22:04:05.071Z,4.94
2022-10-11T22:09:08.669Z,4.88
2022-10-11T22:14:12.096Z,4.86
2022-10-11T22:19:15.627Z,4.86
2022-10-11T22:24:18.308Z,4.91
2022-10-11T22:29:20.949Z,4.99
2022-10-11T22:34:23.571Z,5.05
2022-10-11T22:39:26.236Z,5.10
2022-10-11T22:44:28.875Z,5.20
2022-10-11T22:49:31.575Z,5.30
2022-10-11T22:54:34.275Z,5.40
2022-10-11T22:59:36.915Z,5.51
2022-10-11T23:04:39.589Z,5.62
2022-10-11T23:09:42.216Z,5.75
2022-10-11T23:14:44.869Z,5.89
2022-10-11T23:19:47.552Z,5.97
2022-10-11T23:24:50.246Z,5.98
2022-10-11T23:29:52.904Z,5.95
2022-10-11T23:34:55.722Z,5.87
2022-10-11T23:39:58.422Z,5.78
2022-10-11T23:45:01.045Z,5.71
2022-10-11T23:50:04.046Z,5.69
2022-10-11T23:55:06.950Z,5.64
